• 2 / 2
  • 15
  • 1975
  • 150,718
Pending - Cont. To Show Status Condo
Check Drive Time
See how long it takes to get to work. Change


This beautiful, spacious, remodeled 2 bedroom corner unit features windows on all sides that capture the light and tropical breezes, and the ground floor location offers quick and easy access to parking for groceries. Sold fully furnished and ready to use as a second home, residence or popular vacation rental, you'll enjoy the ocean views from the lanai as well as from the beachfront pool. Features include an open floor plan in the kitchen, dining, & living area, with granite counter tops, contemporary bathrooms, new slider patio door, new front door, and new central A/C. Located between the world class resorts and golf courses of Kaanapali and Kapalua, and only 15 minutes from historical Lahaina town with it's award winning restaurants and harbor activities, Royal Kahana amenites also include sauna, fitness center, beachside BBQ area, 24-hr front desk, activities desk, concierge services, business center, and covered parking--& just across the street from restaurants, banks and shops.A/C & electricity is included in maintenance fee.

Address: 4365 Lower Honoapiilani Rd
State: HI
City: Lahaina
County:
Zip Code: 96761
Neighborhood: Napili Kahana Honokowai
MLS#: 382406
MLS Area:
Taxes: $343

Price History

Date Price Event Change MLS#:
4/9/2019 $475,000 List Price 380232
4/4/2019 $475,000 List Price 28.38% 382406
3/26/2019 $370,000 List Price -25.85% 378355
3/4/2019 $499,000 List Price 48.96% 371103
2/28/2019 $335,000 List Price -46.4% 381931
2/21/2019 $625,000 List Price 31.58% 381845
2/18/2019 $475,000 List Price 32.87% 381812
2/2/2019 $357,500 List Price 9.16% 381608
1/16/2019 $327,500 List Price -34.5% 381364
12/21/2018 $500,000 List Price 69.49% 381075
11/21/2018 $295,000 List Price -37.89% 380698
11/13/2018 $475,000 List Price -5% 380573
10/15/2018 $500,000 List Price 49.25% 380232
8/23/2018 $335,000 List Price 28.85% 379671
8/11/2018 $260,000 List Price -8.77% 379548
8/1/2018 $285,000 List Price -72.81% 377130
7/19/2018 $1,048,000 List Price 111.72% 375907
7/2/2018 $495,000 List Price 25.16% 374890
7/1/2018 $395,500 List Price -0.88% 376716
5/29/2018 $399,000 List Price -6.12% 376782
5/25/2018 $425,000 List Price 6.38% 376782
5/18/2018 $399,500 List Price 6.53% 376716
5/2/2018 $375,000 List Price -27.88% 378355
5/1/2018 $520,000 List Price 79.93% 378336
4/18/2018 $289,000 List Price 16.06% 377130
4/17/2018 $249,000 List Price -15.59% 378179
3/29/2018 $295,000 List Price -1.34% 377130
3/23/2018 $299,000 List Price 19.6% 377345
3/14/2018 $250,000 List Price -44.32% 377830
3/1/2018 $449,000 List Price 33.04% 375730
2/28/2018 $337,500 List Price -21.51% 368486
2/16/2018 $430,000 List Price 44.78% 377523
2/10/2018 $297,000 List Price -10% 377130
2/2/2018 $330,000 List Price 9.27% 377345
1/20/2018 $302,000 List Price -32.59% 377130
12/21/2017 $448,000 List Price 25.14% 376782
12/20/2017 $358,000 List Price -11.6% 376773
12/16/2017 $405,000 List Price 50% 376716
11/25/2017 $270,000 List Price -9.7% 371796
10/25/2017 $299,000 List Price -35.7% 374039
10/24/2017 $465,000 List Price -57.65% 372623
10/12/2017 $1,098,000 List Price 146.19% 375907
10/3/2017 $446,000 List Price -6.11% 375720
10/3/2017 $475,000 List Price -45.9% 375730
9/29/2017 $878,000 List Price 46.58% 374661
9/27/2017 $599,000 List Price 33.41% 375682
9/26/2017 $449,000 List Price -52.64% 375697
9/22/2017 $948,000 List Price -1.04% 374661
9/7/2017 $958,000 List Price 95.51% 374661
9/5/2017 $490,000 List Price 9.38% 372623
8/22/2017 $448,000 List Price -0.18% 372691
8/15/2017 $448,800 List Price -53.49% 372691
8/9/2017 $965,000 List Price -19.25% 374661
8/2/2017 $1,195,000 List Price 166.74% 375069
7/22/2017 $448,000 List Price -16.26% 374945
7/18/2017 $535,000 List Price -1.29% 374890
7/18/2017 $542,000 List Price -44.01% 374873
7/7/2017 $968,000 List Price 228.14% 374661
7/7/2017 $295,000 List Price -30.59% 374039
7/3/2017 $425,000 List Price 51.79% 374463
6/26/2017 $280,000 List Price 1.82% 370587
6/26/2017 $275,000 List Price -43.3% 370586
6/26/2017 $485,000 List Price 40.58% 368487
6/26/2017 $345,000 List Price 11.29% 368486
6/26/2017 $310,000 List Price -35.28% 365484
6/22/2017 $479,000 List Price -6.99% 371103
6/22/2017 $515,000 List Price 14.96% 372623
6/13/2017 $448,000 List Price -27.15% 372691
5/13/2017 $615,000 List Price 42.69% 368637
5/11/2017 $431,000 List Price -8.1% 372072
2/3/2017 $469,000 List Price 68.1% 370499
11/29/2016 $279,000 List Price 371796

Nearby Schools

Maui Preparatory Academy(Preschool-12)3
Maui Preparatory Academy(Preschool-12)3
Maui Preparatory Academy(Preschool-12)3

Interior Details

  • Appliances:Exercise Room, Sauna, Bar-B-Que, Extra Storage, Spa/Hot Tub
  • Amenities:Exercise Room, Sauna, Bar-B-Que, Extra Storage, Spa/Hot Tub
  • Features:
  • Furnished:
  • Floor Type:
  • Cooling:
  • Heating:
  • Other Rooms:

Exterior Details

  • Home Construction
  • Features:
  • WaterFront Description:BeachFront
  • Exposure:
  • Roof Type:
  • Garage Spaces:
  • Pool:Yes
  • Utilities:
  • Lot Description:
  • Sewer:Sewer Connected

Community Details

  • HOA: $0/mo
    Fees Include:

Rental Information

  • Rental Income:$0
  • Rental Number:0

Similar Properties

Property Information Last Updated: 4/19/2019 10:53:46 PM
Property Listed By RE/MAX Island Properties, LLC


This information is believed to be accurate. It has been provided by sources other than the Realtors Assoc. of Maui and should not be relied upon without independent verification. You should conduct your own investigation and consult with appropriate professionals to determine the accuracy of the information provided and to answer any questions concerning the property and structures located thereon. Featured properties may or may not be listed by the office/agent presenting this brochure. Copyright, 1995-2017, REALTORS (R) Association of Maui, Inc. All Rights Reserved.

>